createdAt,value
2018-08-30T00:05:14.000Z,47.709
2018-08-30T00:15:14.000Z,47.793
2018-08-30T00:25:15.000Z,47.932
2018-08-30T00:35:14.000Z,48.027
2018-08-30T00:45:14.000Z,48.088
2018-08-30T00:55:14.000Z,48.14
2018-08-30T01:05:14.000Z,48.224
2018-08-30T01:15:14.000Z,48.176
2018-08-30T01:25:15.000Z,48.206
2018-08-30T01:35:15.000Z,48.266
2018-08-30T01:45:17.000Z,48.274
2018-08-30T01:55:15.000Z,48.271
2018-08-30T02:05:15.000Z,48.224
2018-08-30T02:15:16.000Z,48.255
2018-08-30T02:25:15.000Z,48.219
2018-08-30T02:35:15.000Z,48.25
2018-08-30T02:45:15.000Z,48.324
2018-08-30T02:55:15.000Z,48.343
2018-08-30T03:05:15.000Z,48.374
2018-08-30T03:15:15.000Z,48.372
2018-08-30T03:25:15.000Z,48.446
2018-08-30T03:35:15.000Z,48.488
2018-08-30T03:45:15.000Z,48.595
2018-08-30T03:55:15.000Z,48.647
2018-08-30T04:05:15.000Z,48.744
2018-08-30T04:15:15.000Z,48.838
2018-08-30T04:25:15.000Z,48.824
2018-08-30T04:35:15.000Z,48.867
2018-08-30T04:45:16.000Z,48.898
2018-08-30T04:55:15.000Z,48.897
2018-08-30T05:05:15.000Z,48.993
2018-08-30T05:15:15.000Z,49.012
2018-08-30T05:25:15.000Z,49.152
2018-08-30T05:35:15.000Z,49.215
2018-08-30T05:45:15.000Z,49.369
2018-08-30T05:55:15.000Z,49.786
2018-08-30T06:05:15.000Z,50.657
2018-08-30T06:15:15.000Z,51.344
2018-08-30T06:25:15.000Z,51.079
2018-08-30T06:35:15.000Z,50.892
2018-08-30T06:45:15.000Z,51.055
2018-08-30T06:55:15.000Z,50.805
2018-08-30T07:05:15.000Z,50.816
2018-08-30T07:15:15.000Z,50.825
2018-08-30T07:25:15.000Z,50.642
2018-08-30T07:35:15.000Z,50.461
2018-08-30T07:45:15.000Z,50.154
2018-08-30T07:55:15.000Z,49.728
2018-08-30T08:05:15.000Z,49.668
2018-08-30T08:15:15.000Z,49.448
2018-08-30T08:25:15.000Z,49.203
2018-08-30T08:35:15.000Z,49.042
2018-08-30T08:45:15.000Z,48.55
2018-08-30T08:55:15.000Z,48.448
2018-08-30T09:05:15.000Z,48.277
2018-08-30T09:15:15.000Z,47.983
2018-08-30T09:25:15.000Z,47.664
2018-08-30T09:35:16.000Z,47.735
2018-08-30T09:45:17.000Z,48.001
2018-08-30T09:55:16.000Z,47.956
2018-08-30T10:05:16.000Z,47.375
2018-08-30T10:15:16.000Z,46.981
2018-08-30T10:25:16.000Z,46.653
2018-08-30T10:35:16.000Z,46.241
2018-08-30T10:45:16.000Z,46.469
2018-08-30T10:55:16.000Z,45.877
2018-08-30T11:05:16.000Z,45.673
2018-08-30T11:15:16.000Z,45.772
2018-08-30T11:25:16.000Z,45.597
2018-08-30T11:35:16.000Z,45.166
2018-08-30T11:45:16.000Z,45.348
2018-08-30T11:55:16.000Z,45.323
2018-08-30T12:05:16.000Z,45.255
2018-08-30T12:15:16.000Z,44.821
2018-08-30T12:25:16.000Z,44.849
2018-08-30T12:35:16.000Z,44.366
2018-08-30T12:45:16.000Z,44.642
2018-08-30T12:55:16.000Z,44.691
2018-08-30T13:05:16.000Z,44.59
2018-08-30T13:15:16.000Z,44.453
2018-08-30T13:25:16.000Z,44.542
2018-08-30T13:35:16.000Z,44.466
2018-08-30T13:45:16.000Z,44.527
2018-08-30T13:55:16.000Z,44.643
2018-08-30T14:05:16.000Z,47.297
2018-08-30T14:15:16.000Z,46.023
2018-08-30T14:25:16.000Z,45.581
2018-08-30T14:35:16.000Z,45.579
2018-08-30T14:45:16.000Z,45.521
2018-08-30T14:55:16.000Z,45.25
2018-08-30T15:05:16.000Z,45.267
2018-08-30T15:15:16.000Z,45.166
2018-08-30T15:25:16.000Z,45.228
2018-08-30T15:35:16.000Z,45.084
2018-08-30T15:45:16.000Z,45.059
2018-08-30T15:55:16.000Z,45.098
2018-08-30T16:05:16.000Z,45.58
2018-08-30T16:15:16.000Z,45.262
2018-08-30T16:25:16.000Z,45.306
2018-08-30T16:35:16.000Z,45.371
2018-08-30T16:45:16.000Z,45.489
2018-08-30T16:55:16.000Z,45.618
2018-08-30T17:05:16.000Z,45.811
2018-08-30T17:15:16.000Z,45.865
2018-08-30T17:25:16.000Z,46.112
2018-08-30T17:35:16.000Z,46.145
2018-08-30T17:45:16.000Z,46.471
2018-08-30T17:55:17.000Z,46.291
2018-08-30T18:05:17.000Z,46.264
2018-08-30T18:15:17.000Z,46.261
2018-08-30T18:25:17.000Z,46.249
2018-08-30T18:35:17.000Z,46.303
2018-08-30T18:45:17.000Z,46.38
2018-08-30T18:55:17.000Z,46.631
2018-08-30T19:05:17.000Z,46.975
2018-08-30T19:15:17.000Z,47.576
2018-08-30T19:25:17.000Z,47.617
2018-08-30T19:35:17.000Z,47.777
2018-08-30T19:45:17.000Z,47.664
2018-08-30T19:55:17.000Z,47.436
2018-08-30T20:05:17.000Z,47.251
2018-08-30T20:15:17.000Z,47.263
2018-08-30T20:25:17.000Z,47.139
2018-08-30T20:35:17.000Z,47.095
2018-08-30T20:45:17.000Z,47.35
2018-08-30T21:05:17.000Z,47.283
2018-08-30T21:15:17.000Z,47.037
2018-08-30T21:25:17.000Z,46.978
2018-08-30T21:35:17.000Z,46.82
2018-08-30T21:45:17.000Z,46.751
2018-08-30T21:55:17.000Z,46.625
2018-08-30T22:05:17.000Z,46.466
2018-08-30T22:15:17.000Z,46.617
2018-08-30T22:25:17.000Z,46.59
2018-08-30T22:35:17.000Z,46.509
2018-08-30T22:45:17.000Z,46.461
2018-08-30T22:55:17.000Z,46.227
2018-08-30T23:05:17.000Z,46.288
2018-08-30T23:15:17.000Z,46.371
2018-08-30T23:25:17.000Z,46.368
2018-08-30T23:35:17.000Z,46.34
2018-08-30T23:45:17.000Z,46.379
2018-08-30T23:55:17.000Z,46.3
